sensor_id;sensor_type;location;lat;lon;timestamp;P1;durP1;ratioP1;P2;durP2;ratioP2
20122;SDS011;10222;50.848;4.336;2024-02-04T00:01:59;12.60;;;4.90;;
20122;SDS011;10222;50.848;4.336;2024-02-04T00:04:28;7.03;;;4.10;;
20122;SDS011;10222;50.848;4.336;2024-02-04T00:06:54;11.40;;;4.17;;
20122;SDS011;10222;50.848;4.336;2024-02-04T00:09:20;11.63;;;4.93;;
20122;SDS011;10222;50.848;4.336;2024-02-04T00:11:48;7.20;;;4.07;;
20122;SDS011;10222;50.848;4.336;2024-02-04T00:14:14;10.60;;;4.97;;
20122;SDS011;10222;50.848;4.336;2024-02-04T00:16:40;9.13;;;4.33;;
20122;SDS011;10222;50.848;4.336;2024-02-04T00:19:06;7.33;;;3.83;;
20122;SDS011;10222;50.848;4.336;2024-02-04T00:21:33;7.50;;;4.33;;
20122;SDS011;10222;50.848;4.336;2024-02-04T00:23:59;7.93;;;4.53;;
20122;SDS011;10222;50.848;4.336;2024-02-04T00:26:26;12.80;;;4.33;;
20122;SDS011;10222;50.848;4.336;2024-02-04T00:28:52;9.53;;;4.10;;
20122;SDS011;10222;50.848;4.336;2024-02-04T00:31:18;9.47;;;4.33;;
20122;SDS011;10222;50.848;4.336;2024-02-04T00:36:13;8.63;;;3.83;;
20122;SDS011;10222;50.848;4.336;2024-02-04T00:38:39;13.03;;;4.17;;
20122;SDS011;10222;50.848;4.336;2024-02-04T00:41:05;6.30;;;3.50;;
20122;SDS011;10222;50.848;4.336;2024-02-04T00:43:32;8.27;;;3.30;;
20122;SDS011;10222;50.848;4.336;2024-02-04T00:45:58;6.27;;;3.70;;
20122;SDS011;10222;50.848;4.336;2024-02-04T00:48:26;6.43;;;3.67;;
20122;SDS011;10222;50.848;4.336;2024-02-04T00:50:52;7.30;;;3.50;;
20122;SDS011;10222;50.848;4.336;2024-02-04T00:53:18;6.57;;;4.10;;
20122;SDS011;10222;50.848;4.336;2024-02-04T00:55:44;7.90;;;3.17;;
20122;SDS011;10222;50.848;4.336;2024-02-04T00:58:11;5.43;;;2.80;;
20122;SDS011;10222;50.848;4.336;2024-02-04T01:00:38;6.27;;;3.43;;
20122;SDS011;10222;50.848;4.336;2024-02-04T01:03:04;6.40;;;2.90;;
20122;SDS011;10222;50.848;4.336;2024-02-04T01:05:30;5.57;;;3.17;;
20122;SDS011;10222;50.848;4.336;2024-02-04T01:07:57;4.77;;;3.13;;
20122;SDS011;10222;50.848;4.336;2024-02-04T01:10:24;7.37;;;3.50;;
20122;SDS011;10222;50.848;4.336;2024-02-04T01:12:50;6.97;;;3.17;;
20122;SDS011;10222;50.848;4.336;2024-02-04T01:15:16;5.43;;;2.93;;
20122;SDS011;10222;50.848;4.336;2024-02-04T01:17:43;6.80;;;2.67;;
20122;SDS011;10222;50.848;4.336;2024-02-04T01:20:09;4.70;;;2.87;;
20122;SDS011;10222;50.848;4.336;2024-02-04T01:22:35;9.77;;;3.27;;
20122;SDS011;10222;50.848;4.336;2024-02-04T01:25:01;6.07;;;3.10;;
20122;SDS011;10222;50.848;4.336;2024-02-04T01:27:27;5.53;;;2.80;;
20122;SDS011;10222;50.848;4.336;2024-02-04T01:29:53;5.47;;;2.93;;
20122;SDS011;10222;50.848;4.336;2024-02-04T01:32:21;8.27;;;3.37;;
20122;SDS011;10222;50.848;4.336;2024-02-04T01:34:47;6.33;;;3.50;;
20122;SDS011;10222;50.848;4.336;2024-02-04T01:37:13;6.07;;;3.17;;
20122;SDS011;10222;50.848;4.336;2024-02-04T01:39:39;7.53;;;2.83;;
20122;SDS011;10222;50.848;4.336;2024-02-04T01:42:05;8.30;;;3.27;;
20122;SDS011;10222;50.848;4.336;2024-02-04T01:44:31;5.77;;;2.90;;
20122;SDS011;10222;50.848;4.336;2024-02-04T01:46:59;7.67;;;3.20;;
20122;SDS011;10222;50.848;4.336;2024-02-04T01:49:25;6.27;;;3.17;;
20122;SDS011;10222;50.848;4.336;2024-02-04T01:51:51;5.20;;;3.67;;
20122;SDS011;10222;50.848;4.336;2024-02-04T01:54:18;4.90;;;3.40;;
20122;SDS011;10222;50.848;4.336;2024-02-04T01:56:46;5.23;;;3.43;;
20122;SDS011;10222;50.848;4.336;2024-02-04T01:59:13;7.03;;;3.47;;
20122;SDS011;10222;50.848;4.336;2024-02-04T02:01:39;7.23;;;3.27;;
20122;SDS011;10222;50.848;4.336;2024-02-04T02:04:06;6.80;;;3.80;;
20122;SDS011;10222;50.848;4.336;2024-02-04T02:06:32;8.43;;;4.20;;
20122;SDS011;10222;50.848;4.336;2024-02-04T02:09:00;6.43;;;3.60;;
20122;SDS011;10222;50.848;4.336;2024-02-04T02:11:32;9.23;;;3.50;;
20122;SDS011;10222;50.848;4.336;2024-02-04T02:14:02;7.50;;;3.90;;
20122;SDS011;10222;50.848;4.336;2024-02-04T02:16:29;11.00;;;3.57;;
20122;SDS011;10222;50.848;4.336;2024-02-04T02:19:00;9.13;;;4.10;;
20122;SDS011;10222;50.848;4.336;2024-02-04T02:26:40;7.80;;;3.90;;
20122;SDS011;10222;50.848;4.336;2024-02-04T02:29:06;10.67;;;4.27;;
20122;SDS011;10222;50.848;4.336;2024-02-04T02:31:35;10.67;;;4.63;;
20122;SDS011;10222;50.848;4.336;2024-02-04T02:34:01;9.53;;;4.53;;
20122;SDS011;10222;50.848;4.336;2024-02-04T02:36:29;16.43;;;4.83;;
20122;SDS011;10222;50.848;4.336;2024-02-04T02:39:10;7.10;;;4.50;;
20122;SDS011;10222;50.848;4.336;2024-02-04T02:41:39;12.80;;;5.10;;
20122;SDS011;10222;50.848;4.336;2024-02-04T02:44:08;10.67;;;4.60;;
20122;SDS011;10222;50.848;4.336;2024-02-04T02:46:34;11.13;;;4.73;;
20122;SDS011;10222;50.848;4.336;2024-02-04T02:49:01;13.93;;;5.50;;
20122;SDS011;10222;50.848;4.336;2024-02-04T02:51:28;10.47;;;5.00;;
20122;SDS011;10222;50.848;4.336;2024-02-04T02:53:56;9.30;;;4.50;;
20122;SDS011;10222;50.848;4.336;2024-02-04T02:56:22;14.27;;;5.03;;
20122;SDS011;10222;50.848;4.336;2024-02-04T02:58:48;11.47;;;5.20;;
20122;SDS011;10222;50.848;4.336;2024-02-04T03:01:15;9.70;;;4.10;;
20122;SDS011;10222;50.848;4.336;2024-02-04T03:03:41;11.63;;;5.40;;
20122;SDS011;10222;50.848;4.336;2024-02-04T03:06:08;12.83;;;5.30;;
20122;SDS011;10222;50.848;4.336;2024-02-04T03:08:34;11.53;;;4.90;;
20122;SDS011;10222;50.848;4.336;2024-02-04T03:11:01;14.33;;;4.87;;
20122;SDS011;10222;50.848;4.336;2024-02-04T03:13:28;11.83;;;5.13;;
20122;SDS011;10222;50.848;4.336;2024-02-04T03:15:55;15.77;;;5.20;;
20122;SDS011;10222;50.848;4.336;2024-02-04T03:18:21;11.97;;;5.57;;
20122;SDS011;10222;50.848;4.336;2024-02-04T03:20:47;12.07;;;5.50;;
20122;SDS011;10222;50.848;4.336;2024-02-04T03:23:13;11.23;;;5.57;;
20122;SDS011;10222;50.848;4.336;2024-02-04T03:25:40;11.77;;;5.27;;
20122;SDS011;10222;50.848;4.336;2024-02-04T03:28:07;11.33;;;5.40;;
20122;SDS011;10222;50.848;4.336;2024-02-04T03:30:33;13.10;;;4.53;;
20122;SDS011;10222;50.848;4.336;2024-02-04T03:32:59;9.87;;;4.77;;
20122;SDS011;10222;50.848;4.336;2024-02-04T03:35:26;10.20;;;4.80;;
20122;SDS011;10222;50.848;4.336;2024-02-04T03:37:58;11.20;;;4.63;;
20122;SDS011;10222;50.848;4.336;2024-02-04T03:40:25;11.33;;;4.87;;
20122;SDS011;10222;50.848;4.336;2024-02-04T03:42:53;8.57;;;4.40;;
20122;SDS011;10222;50.848;4.336;2024-02-04T03:45:20;10.57;;;4.50;;
20122;SDS011;10222;50.848;4.336;2024-02-04T03:47:46;14.83;;;4.57;;
20122;SDS011;10222;50.848;4.336;2024-02-04T03:50:12;11.47;;;4.47;;
20122;SDS011;10222;50.848;4.336;2024-02-04T03:55:08;8.97;;;4.30;;
20122;SDS011;10222;50.848;4.336;2024-02-04T03:57:34;10.33;;;4.57;;
20122;SDS011;10222;50.848;4.336;2024-02-04T04:00:02;7.47;;;4.17;;
20122;SDS011;10222;50.848;4.336;2024-02-04T04:02:30;7.57;;;3.90;;
20122;SDS011;10222;50.848;4.336;2024-02-04T04:04:56;12.30;;;4.40;;
20122;SDS011;10222;50.848;4.336;2024-02-04T04:09:51;10.03;;;4.27;;
20122;SDS011;10222;50.848;4.336;2024-02-04T04:12:18;9.13;;;3.73;;
20122;SDS011;10222;50.848;4.336;2024-02-04T04:14:44;10.13;;;3.97;;
20122;SDS011;10222;50.848;4.336;2024-02-04T04:17:10;9.00;;;3.70;;
20122;SDS011;10222;50.848;4.336;2024-02-04T04:19:36;11.23;;;3.97;;
20122;SDS011;10222;50.848;4.336;2024-02-04T04:22:02;10.10;;;4.67;;
20122;SDS011;10222;50.848;4.336;2024-02-04T04:24:29;8.70;;;3.80;;
20122;SDS011;10222;50.848;4.336;2024-02-04T04:26:55;7.80;;;3.93;;
20122;SDS011;10222;50.848;4.336;2024-02-04T04:29:21;13.17;;;4.60;;
20122;SDS011;10222;50.848;4.336;2024-02-04T04:31:47;10.57;;;3.93;;
20122;SDS011;10222;50.848;4.336;2024-02-04T04:34:15;5.23;;;2.97;;
20122;SDS011;10222;50.848;4.336;2024-02-04T04:36:43;7.23;;;3.77;;
20122;SDS011;10222;50.848;4.336;2024-02-04T04:39:10;8.07;;;4.30;;
20122;SDS011;10222;50.848;4.336;2024-02-04T04:41:36;12.37;;;4.73;;
20122;SDS011;10222;50.848;4.336;2024-02-04T04:44:02;9.20;;;3.80;;
20122;SDS011;10222;50.848;4.336;2024-02-04T04:46:28;13.30;;;4.67;;
20122;SDS011;10222;50.848;4.336;2024-02-04T04:48:54;10.77;;;4.60;;
20122;SDS011;10222;50.848;4.336;2024-02-04T04:51:23;10.00;;;3.97;;
20122;SDS011;10222;50.848;4.336;2024-02-04T04:53:49;10.87;;;3.97;;
20122;SDS011;10222;50.848;4.336;2024-02-04T04:56:15;8.07;;;4.27;;
20122;SDS011;10222;50.848;4.336;2024-02-04T04:58:41;8.70;;;3.67;;
20122;SDS011;10222;50.848;4.336;2024-02-04T05:01:07;11.97;;;4.40;;
20122;SDS011;10222;50.848;4.336;2024-02-04T05:03:33;10.37;;;4.20;;
20122;SDS011;10222;50.848;4.336;2024-02-04T05:05:59;7.67;;;3.90;;
20122;SDS011;10222;50.848;4.336;2024-02-04T05:08:26;9.00;;;3.40;;
20122;SDS011;10222;50.848;4.336;2024-02-04T05:10:52;7.27;;;3.77;;
20122;SDS011;10222;50.848;4.336;2024-02-04T05:13:18;13.10;;;4.40;;
20122;SDS011;10222;50.848;4.336;2024-02-04T05:15:44;11.20;;;4.13;;
20122;SDS011;10222;50.848;4.336;2024-02-04T05:18:10;9.37;;;4.20;;
20122;SDS011;10222;50.848;4.336;2024-02-04T05:20:36;10.13;;;4.60;;
20122;SDS011;10222;50.848;4.336;2024-02-04T05:23:02;7.07;;;3.50;;
20122;SDS011;10222;50.848;4.336;2024-02-04T05:25:28;9.03;;;3.77;;
20122;SDS011;10222;50.848;4.336;2024-02-04T05:27:54;12.10;;;3.87;;
20122;SDS011;10222;50.848;4.336;2024-02-04T05:30:22;14.27;;;3.90;;
20122;SDS011;10222;50.848;4.336;2024-02-04T05:32:49;9.17;;;4.33;;
20122;SDS011;10222;50.848;4.336;2024-02-04T05:35:15;7.83;;;3.37;;
20122;SDS011;10222;50.848;4.336;2024-02-04T05:37:42;16.40;;;4.63;;
20122;SDS011;10222;50.848;4.336;2024-02-04T05:40:08;14.40;;;4.40;;
20122;SDS011;10222;50.848;4.336;2024-02-04T05:42:34;11.13;;;3.70;;
20122;SDS011;10222;50.848;4.336;2024-02-04T05:45:02;12.73;;;4.70;;
20122;SDS011;10222;50.848;4.336;2024-02-04T05:47:28;10.43;;;4.10;;
20122;SDS011;10222;50.848;4.336;2024-02-04T05:49:54;8.53;;;4.07;;
20122;SDS011;10222;50.848;4.336;2024-02-04T05:52:20;11.43;;;4.63;;
20122;SDS011;10222;50.848;4.336;2024-02-04T05:54:46;13.20;;;5.13;;
20122;SDS011;10222;50.848;4.336;2024-02-04T05:57:12;11.00;;;4.30;;
20122;SDS011;10222;50.848;4.336;2024-02-04T05:59:38;14.07;;;5.17;;
20122;SDS011;10222;50.848;4.336;2024-02-04T06:02:04;12.40;;;4.60;;
20122;SDS011;10222;50.848;4.336;2024-02-04T06:04:30;10.17;;;4.77;;
20122;SDS011;10222;50.848;4.336;2024-02-04T06:06:57;11.57;;;5.37;;
20122;SDS011;10222;50.848;4.336;2024-02-04T06:09:24;14.20;;;5.10;;
20122;SDS011;10222;50.848;4.336;2024-02-04T06:11:50;17.40;;;5.70;;
20122;SDS011;10222;50.848;4.336;2024-02-04T06:14:16;12.47;;;5.10;;
20122;SDS011;10222;50.848;4.336;2024-02-04T06:16:43;15.27;;;5.60;;
20122;SDS011;10222;50.848;4.336;2024-02-04T06:19:09;15.30;;;5.43;;
20122;SDS011;10222;50.848;4.336;2024-02-04T06:21:37;12.63;;;5.00;;
20122;SDS011;10222;50.848;4.336;2024-02-04T06:24:04;13.20;;;5.53;;
20122;SDS011;10222;50.848;4.336;2024-02-04T06:26:32;13.80;;;5.23;;
20122;SDS011;10222;50.848;4.336;2024-02-04T06:28:58;18.00;;;5.50;;
20122;SDS011;10222;50.848;4.336;2024-02-04T06:33:53;10.87;;;4.70;;
20122;SDS011;10222;50.848;4.336;2024-02-04T06:36:19;13.63;;;4.80;;
20122;SDS011;10222;50.848;4.336;2024-02-04T06:38:45;7.20;;;4.20;;
20122;SDS011;10222;50.848;4.336;2024-02-04T06:41:11;8.13;;;4.23;;
20122;SDS011;10222;50.848;4.336;2024-02-04T06:43:37;15.67;;;5.30;;
20122;SDS011;10222;50.848;4.336;2024-02-04T06:46:03;10.87;;;4.50;;
20122;SDS011;10222;50.848;4.336;2024-02-04T06:48:30;8.33;;;4.80;;
20122;SDS011;10222;50.848;4.336;2024-02-04T06:50:56;12.80;;;4.40;;
20122;SDS011;10222;50.848;4.336;2024-02-04T06:53:22;13.83;;;4.70;;
20122;SDS011;10222;50.848;4.336;2024-02-04T06:55:49;12.57;;;4.83;;
20122;SDS011;10222;50.848;4.336;2024-02-04T06:58:15;10.33;;;5.20;;
20122;SDS011;10222;50.848;4.336;2024-02-04T07:00:42;17.60;;;5.13;;
20122;SDS011;10222;50.848;4.336;2024-02-04T07:03:08;11.47;;;4.47;;
20122;SDS011;10222;50.848;4.336;2024-02-04T07:05:34;12.03;;;4.80;;
20122;SDS011;10222;50.848;4.336;2024-02-04T07:10:30;11.53;;;5.77;;
20122;SDS011;10222;50.848;4.336;2024-02-04T07:12:56;13.00;;;5.43;;
20122;SDS011;10222;50.848;4.336;2024-02-04T07:15:22;15.40;;;5.67;;
20122;SDS011;10222;50.848;4.336;2024-02-04T07:17:48;11.07;;;5.63;;
20122;SDS011;10222;50.848;4.336;2024-02-04T07:20:14;11.80;;;6.00;;
20122;SDS011;10222;50.848;4.336;2024-02-04T07:22:40;10.90;;;5.30;;
20122;SDS011;10222;50.848;4.336;2024-02-04T07:25:06;15.93;;;6.03;;
20122;SDS011;10222;50.848;4.336;2024-02-04T07:27:32;14.43;;;5.57;;
20122;SDS011;10222;50.848;4.336;2024-02-04T07:29:58;13.00;;;6.20;;
20122;SDS011;10222;50.848;4.336;2024-02-04T07:32:24;12.37;;;5.97;;
20122;SDS011;10222;50.848;4.336;2024-02-04T07:34:50;12.77;;;6.00;;
20122;SDS011;10222;50.848;4.336;2024-02-04T07:37:18;16.00;;;6.70;;
20122;SDS011;10222;50.848;4.336;2024-02-04T07:39:44;9.80;;;5.73;;
20122;SDS011;10222;50.848;4.336;2024-02-04T07:42:10;15.87;;;5.43;;
20122;SDS011;10222;50.848;4.336;2024-02-04T07:44:36;14.40;;;6.03;;
20122;SDS011;10222;50.848;4.336;2024-02-04T07:47:02;12.77;;;4.90;;
20122;SDS011;10222;50.848;4.336;2024-02-04T07:49:28;14.10;;;5.40;;
20122;SDS011;10222;50.848;4.336;2024-02-04T07:51:54;12.77;;;5.03;;
20122;SDS011;10222;50.848;4.336;2024-02-04T07:54:21;10.67;;;4.80;;
20122;SDS011;10222;50.848;4.336;2024-02-04T07:56:47;9.83;;;4.77;;
20122;SDS011;10222;50.848;4.336;2024-02-04T07:59:13;10.70;;;5.13;;
20122;SDS011;10222;50.848;4.336;2024-02-04T08:01:39;8.30;;;4.40;;
20122;SDS011;10222;50.848;4.336;2024-02-04T08:04:05;9.60;;;4.60;;
20122;SDS011;10222;50.848;4.336;2024-02-04T08:06:33;11.07;;;4.50;;
20122;SDS011;10222;50.848;4.336;2024-02-04T08:09:00;6.37;;;4.30;;
20122;SDS011;10222;50.848;4.336;2024-02-04T08:11:26;9.60;;;4.73;;
20122;SDS011;10222;50.848;4.336;2024-02-04T08:13:52;9.43;;;4.40;;
20122;SDS011;10222;50.848;4.336;2024-02-04T08:16:18;9.43;;;4.67;;
20122;SDS011;10222;50.848;4.336;2024-02-04T08:18:45;8.40;;;4.50;;
20122;SDS011;10222;50.848;4.336;2024-02-04T08:21:11;8.07;;;4.50;;
20122;SDS011;10222;50.848;4.336;2024-02-04T08:23:38;11.00;;;4.10;;
20122;SDS011;10222;50.848;4.336;2024-02-04T08:26:05;8.80;;;4.07;;
20122;SDS011;10222;50.848;4.336;2024-02-04T08:28:31;8.30;;;4.30;;
20122;SDS011;10222;50.848;4.336;2024-02-04T08:31:00;10.97;;;4.33;;
20122;SDS011;10222;50.848;4.336;2024-02-04T08:33:29;7.37;;;4.03;;
20122;SDS011;10222;50.848;4.336;2024-02-04T08:35:55;8.40;;;4.40;;
20122;SDS011;10222;50.848;4.336;2024-02-04T08:38:21;8.50;;;3.80;;
20122;SDS011;10222;50.848;4.336;2024-02-04T08:40:47;8.43;;;4.07;;
20122;SDS011;10222;50.848;4.336;2024-02-04T08:43:13;7.50;;;4.23;;
20122;SDS011;10222;50.848;4.336;2024-02-04T08:45:39;10.43;;;4.33;;
20122;SDS011;10222;50.848;4.336;2024-02-04T08:48:05;7.97;;;3.73;;
20122;SDS011;10222;50.848;4.336;2024-02-04T08:50:32;9.23;;;4.37;;
20122;SDS011;10222;50.848;4.336;2024-02-04T08:52:58;8.43;;;3.90;;
20122;SDS011;10222;50.848;4.336;2024-02-04T08:55:25;9.30;;;4.10;;
20122;SDS011;10222;50.848;4.336;2024-02-04T08:57:51;7.20;;;3.00;;
20122;SDS011;10222;50.848;4.336;2024-02-04T09:00:19;5.43;;;3.00;;
20122;SDS011;10222;50.848;4.336;2024-02-04T09:02:46;12.67;;;4.20;;
20122;SDS011;10222;50.848;4.336;2024-02-04T09:05:12;4.53;;;2.73;;
20122;SDS011;10222;50.848;4.336;2024-02-04T09:07:46;7.17;;;3.07;;
20122;SDS011;10222;50.848;4.336;2024-02-04T09:10:13;6.87;;;2.93;;
20122;SDS011;10222;50.848;4.336;2024-02-04T09:12:39;6.23;;;2.50;;
20122;SDS011;10222;50.848;4.336;2024-02-04T09:15:05;5.13;;;2.60;;
20122;SDS011;10222;50.848;4.336;2024-02-04T09:17:31;3.87;;;2.00;;
20122;SDS011;10222;50.848;4.336;2024-02-04T09:19:58;8.43;;;2.63;;
20122;SDS011;10222;50.848;4.336;2024-02-04T09:22:25;5.47;;;2.10;;
20122;SDS011;10222;50.848;4.336;2024-02-04T09:24:51;5.20;;;1.93;;
20122;SDS011;10222;50.848;4.336;2024-02-04T09:27:17;4.73;;;2.20;;
20122;SDS011;10222;50.848;4.336;2024-02-04T09:29:43;5.30;;;2.10;;
20122;SDS011;10222;50.848;4.336;2024-02-04T09:32:09;6.53;;;2.43;;
20122;SDS011;10222;50.848;4.336;2024-02-04T09:34:35;6.63;;;2.10;;
20122;SDS011;10222;50.848;4.336;2024-02-04T09:37:01;4.73;;;1.67;;
20122;SDS011;10222;50.848;4.336;2024-02-04T09:39:28;5.37;;;1.60;;
20122;SDS011;10222;50.848;4.336;2024-02-04T09:41:55;8.00;;;2.40;;
20122;SDS011;10222;50.848;4.336;2024-02-04T09:44:24;5.63;;;1.67;;
20122;SDS011;10222;50.848;4.336;2024-02-04T09:46:51;2.93;;;1.63;;
20122;SDS011;10222;50.848;4.336;2024-02-04T09:49:17;8.57;;;2.23;;
20122;SDS011;10222;50.848;4.336;2024-02-04T09:51:43;2.70;;;1.60;;
20122;SDS011;10222;50.848;4.336;2024-02-04T09:54:10;6.00;;;1.50;;
20122;SDS011;10222;50.848;4.336;2024-02-04T09:56:38;5.73;;;1.90;;
20122;SDS011;10222;50.848;4.336;2024-02-04T09:59:04;4.33;;;1.70;;
20122;SDS011;10222;50.848;4.336;2024-02-04T10:01:31;5.13;;;1.80;;
20122;SDS011;10222;50.848;4.336;2024-02-04T10:03:57;7.73;;;2.23;;
20122;SDS011;10222;50.848;4.336;2024-02-04T10:06:24;5.07;;;1.70;;
20122;SDS011;10222;50.848;4.336;2024-02-04T10:08:50;7.53;;;1.93;;
20122;SDS011;10222;50.848;4.336;2024-02-04T10:11:16;6.83;;;2.13;;
20122;SDS011;10222;50.848;4.336;2024-02-04T10:13:47;8.57;;;2.30;;
20122;SDS011;10222;50.848;4.336;2024-02-04T10:16:13;3.40;;;2.23;;
20122;SDS011;10222;50.848;4.336;2024-02-04T10:18:43;5.80;;;2.53;;
20122;SDS011;10222;50.848;4.336;2024-02-04T10:21:19;3.73;;;2.30;;
20122;SDS011;10222;50.848;4.336;2024-02-04T10:23:47;7.27;;;2.17;;
20122;SDS011;10222;50.848;4.336;2024-02-04T10:26:13;4.93;;;2.60;;
20122;SDS011;10222;50.848;4.336;2024-02-04T10:28:40;4.40;;;2.57;;
20122;SDS011;10222;50.848;4.336;2024-02-04T10:31:09;4.57;;;2.43;;
20122;SDS011;10222;50.848;4.336;2024-02-04T10:33:37;7.43;;;2.50;;
20122;SDS011;10222;50.848;4.336;2024-02-04T10:36:04;4.60;;;2.47;;
20122;SDS011;10222;50.848;4.336;2024-02-04T10:38:33;3.67;;;1.97;;
20122;SDS011;10222;50.848;4.336;2024-02-04T10:41:00;11.03;;;2.47;;
20122;SDS011;10222;50.848;4.336;2024-02-04T10:43:32;7.87;;;2.27;;
20122;SDS011;10222;50.848;4.336;2024-02-04T10:46:01;5.10;;;2.40;;
20122;SDS011;10222;50.848;4.336;2024-02-04T10:48:27;3.47;;;1.97;;
20122;SDS011;10222;50.848;4.336;2024-02-04T10:50:55;6.37;;;2.10;;
20122;SDS011;10222;50.848;4.336;2024-02-04T10:53:23;3.17;;;1.73;;
20122;SDS011;10222;50.848;4.336;2024-02-04T10:55:50;4.27;;;1.50;;
20122;SDS011;10222;50.848;4.336;2024-02-04T10:58:18;4.53;;;1.77;;
20122;SDS011;10222;50.848;4.336;2024-02-04T11:00:45;2.30;;;1.30;;
20122;SDS011;10222;50.848;4.336;2024-02-04T11:03:11;3.40;;;1.67;;
20122;SDS011;10222;50.848;4.336;2024-02-04T11:05:38;4.07;;;1.47;;
20122;SDS011;10222;50.848;4.336;2024-02-04T11:08:05;2.77;;;1.30;;
20122;SDS011;10222;50.848;4.336;2024-02-04T11:10:31;2.43;;;1.50;;
20122;SDS011;10222;50.848;4.336;2024-02-04T11:12:58;2.83;;;1.30;;
20122;SDS011;10222;50.848;4.336;2024-02-04T11:15:27;5.30;;;2.23;;
20122;SDS011;10222;50.848;4.336;2024-02-04T11:25:56;2.90;;;1.30;;
20122;SDS011;10222;50.848;4.336;2024-02-04T11:28:23;3.10;;;1.40;;
20122;SDS011;10222;50.848;4.336;2024-02-04T11:30:51;2.37;;;1.07;;
20122;SDS011;10222;50.848;4.336;2024-02-04T11:33:18;2.23;;;0.90;;
20122;SDS011;10222;50.848;4.336;2024-02-04T11:35:44;4.57;;;1.57;;
20122;SDS011;10222;50.848;4.336;2024-02-04T11:38:20;2.70;;;1.07;;
20122;SDS011;10222;50.848;4.336;2024-02-04T11:40:46;4.37;;;1.10;;
20122;SDS011;10222;50.848;4.336;2024-02-04T11:43:12;2.67;;;0.90;;
20122;SDS011;10222;50.848;4.336;2024-02-04T11:45:41;3.90;;;0.90;;
20122;SDS011;10222;50.848;4.336;2024-02-04T11:48:11;1.73;;;1.00;;
20122;SDS011;10222;50.848;4.336;2024-02-04T11:50:37;2.20;;;1.30;;
20122;SDS011;10222;50.848;4.336;2024-02-04T11:53:07;3.23;;;1.17;;
20122;SDS011;10222;50.848;4.336;2024-02-04T11:55:34;3.23;;;1.80;;
20122;SDS011;10222;50.848;4.336;2024-02-04T11:58:04;3.77;;;1.40;;
20122;SDS011;10222;50.848;4.336;2024-02-04T12:00:42;3.10;;;1.30;;
20122;SDS011;10222;50.848;4.336;2024-02-04T12:03:09;3.87;;;1.20;;
20122;SDS011;10222;50.848;4.336;2024-02-04T12:05:35;3.90;;;1.43;;
20122;SDS011;10222;50.848;4.336;2024-02-04T12:08:05;1.27;;;0.90;;
20122;SDS011;10222;50.848;4.336;2024-02-04T12:10:32;2.57;;;0.90;;
20122;SDS011;10222;50.848;4.336;2024-02-04T12:12:59;3.17;;;1.43;;
20122;SDS011;10222;50.848;4.336;2024-02-04T12:15:26;2.63;;;1.27;;
20122;SDS011;10222;50.848;4.336;2024-02-04T12:17:52;2.57;;;1.10;;
20122;SDS011;10222;50.848;4.336;2024-02-04T12:20:18;2.30;;;1.00;;
20122;SDS011;10222;50.848;4.336;2024-02-04T12:22:44;3.40;;;1.10;;
20122;SDS011;10222;50.848;4.336;2024-02-04T12:25:10;3.33;;;1.50;;
20122;SDS011;10222;50.848;4.336;2024-02-04T12:27:37;3.07;;;1.30;;
20122;SDS011;10222;50.848;4.336;2024-02-04T12:30:03;1.73;;;1.10;;
20122;SDS011;10222;50.848;4.336;2024-02-04T12:32:30;3.03;;;1.33;;
20122;SDS011;10222;50.848;4.336;2024-02-04T12:34:56;2.97;;;1.23;;
20122;SDS011;10222;50.848;4.336;2024-02-04T12:37:22;2.93;;;1.10;;
20122;SDS011;10222;50.848;4.336;2024-02-04T12:39:49;2.40;;;1.20;;
20122;SDS011;10222;50.848;4.336;2024-02-04T12:42:16;4.13;;;1.27;;
20122;SDS011;10222;50.848;4.336;2024-02-04T12:44:49;1.87;;;1.20;;
20122;SDS011;10222;50.848;4.336;2024-02-04T12:47:20;2.73;;;1.17;;
20122;SDS011;10222;50.848;4.336;2024-02-04T12:49:46;1.80;;;1.00;;
20122;SDS011;10222;50.848;4.336;2024-02-04T12:52:12;2.50;;;1.37;;
20122;SDS011;10222;50.848;4.336;2024-02-04T12:54:42;2.23;;;1.10;;
20122;SDS011;10222;50.848;4.336;2024-02-04T12:57:08;3.10;;;1.30;;
20122;SDS011;10222;50.848;4.336;2024-02-04T12:59:36;2.07;;;1.10;;
20122;SDS011;10222;50.848;4.336;2024-02-04T13:02:07;4.20;;;1.50;;
20122;SDS011;10222;50.848;4.336;2024-02-04T13:04:34;1.70;;;1.20;;
20122;SDS011;10222;50.848;4.336;2024-02-04T13:07:01;3.80;;;1.73;;
20122;SDS011;10222;50.848;4.336;2024-02-04T13:09:27;3.27;;;1.40;;
20122;SDS011;10222;50.848;4.336;2024-02-04T13:12:02;2.50;;;1.60;;
20122;SDS011;10222;50.848;4.336;2024-02-04T13:14:29;3.00;;;1.50;;
20122;SDS011;10222;50.848;4.336;2024-02-04T13:16:55;2.53;;;1.30;;
20122;SDS011;10222;50.848;4.336;2024-02-04T13:19:21;3.53;;;1.00;;
20122;SDS011;10222;50.848;4.336;2024-02-04T13:21:47;2.23;;;1.23;;
20122;SDS011;10222;50.848;4.336;2024-02-04T13:24:13;1.33;;;1.10;;
20122;SDS011;10222;50.848;4.336;2024-02-04T13:26:39;3.27;;;1.53;;
20122;SDS011;10222;50.848;4.336;2024-02-04T13:29:05;5.50;;;1.23;;
20122;SDS011;10222;50.848;4.336;2024-02-04T13:31:32;2.00;;;1.30;;
20122;SDS011;10222;50.848;4.336;2024-02-04T13:33:58;4.47;;;1.73;;
20122;SDS011;10222;50.848;4.336;2024-02-04T13:36:24;3.57;;;1.47;;
20122;SDS011;10222;50.848;4.336;2024-02-04T13:38:50;2.80;;;1.27;;
20122;SDS011;10222;50.848;4.336;2024-02-04T13:41:16;2.60;;;1.50;;
20122;SDS011;10222;50.848;4.336;2024-02-04T13:43:43;2.33;;;1.73;;
20122;SDS011;10222;50.848;4.336;2024-02-04T13:46:09;1.27;;;1.17;;
20122;SDS011;10222;50.848;4.336;2024-02-04T13:48:35;3.53;;;1.37;;
20122;SDS011;10222;50.848;4.336;2024-02-04T13:51:01;1.73;;;1.10;;
20122;SDS011;10222;50.848;4.336;2024-02-04T13:53:27;2.57;;;1.43;;
20122;SDS011;10222;50.848;4.336;2024-02-04T13:55:53;6.60;;;1.60;;
20122;SDS011;10222;50.848;4.336;2024-02-04T13:58:19;2.53;;;1.10;;
20122;SDS011;10222;50.848;4.336;2024-02-04T14:00:47;5.93;;;1.67;;
20122;SDS011;10222;50.848;4.336;2024-02-04T14:03:13;3.00;;;1.47;;
20122;SDS011;10222;50.848;4.336;2024-02-04T14:05:40;3.83;;;1.50;;
20122;SDS011;10222;50.848;4.336;2024-02-04T14:08:06;2.70;;;1.40;;
20122;SDS011;10222;50.848;4.336;2024-02-04T14:10:32;3.90;;;1.67;;
20122;SDS011;10222;50.848;4.336;2024-02-04T14:12:58;3.50;;;1.67;;
20122;SDS011;10222;50.848;4.336;2024-02-04T14:15:24;3.67;;;1.40;;
20122;SDS011;10222;50.848;4.336;2024-02-04T14:17:50;2.27;;;1.60;;
20122;SDS011;10222;50.848;4.336;2024-02-04T14:20:16;5.73;;;1.50;;
20122;SDS011;10222;50.848;4.336;2024-02-04T14:22:42;4.67;;;1.70;;
20122;SDS011;10222;50.848;4.336;2024-02-04T14:25:09;3.47;;;1.57;;
20122;SDS011;10222;50.848;4.336;2024-02-04T14:27:35;4.50;;;1.40;;
20122;SDS011;10222;50.848;4.336;2024-02-04T14:30:02;4.17;;;1.67;;
20122;SDS011;10222;50.848;4.336;2024-02-04T14:32:28;5.50;;;1.40;;
20122;SDS011;10222;50.848;4.336;2024-02-04T14:34:54;7.57;;;1.63;;
20122;SDS011;10222;50.848;4.336;2024-02-04T14:37:20;6.40;;;1.90;;
20122;SDS011;10222;50.848;4.336;2024-02-04T14:39:46;4.43;;;2.00;;
20122;SDS011;10222;50.848;4.336;2024-02-04T14:42:14;5.90;;;1.63;;
20122;SDS011;10222;50.848;4.336;2024-02-04T14:44:40;4.50;;;1.80;;
20122;SDS011;10222;50.848;4.336;2024-02-04T14:47:06;4.57;;;1.60;;
20122;SDS011;10222;50.848;4.336;2024-02-04T14:49:32;5.33;;;1.70;;
20122;SDS011;10222;50.848;4.336;2024-02-04T14:51:58;3.87;;;1.10;;
20122;SDS011;10222;50.848;4.336;2024-02-04T14:54:24;4.10;;;1.77;;
20122;SDS011;10222;50.848;4.336;2024-02-04T14:56:52;5.07;;;1.83;;
20122;SDS011;10222;50.848;4.336;2024-02-04T14:59:18;3.33;;;1.47;;
20122;SDS011;10222;50.848;4.336;2024-02-04T15:01:44;8.57;;;1.60;;
20122;SDS011;10222;50.848;4.336;2024-02-04T15:04:11;2.10;;;1.40;;
20122;SDS011;10222;50.848;4.336;2024-02-04T15:06:38;3.40;;;1.57;;